Terminal Aerodrome Forecast
Issued by NWS Sioux Falls, SD

Home | Current Version | Previous Version | Graphics & Text | Print | Product List | Glossary On
Versions: 1 2 3 4 5 6 7 8 9 10 11 12 13 14 15 16 17 18 19 20 21 22 23 24 25 26 27 28 29 30 31 32 33 34 35 36
001
FTUS43 KFSD 161720
TAFSUX
TAF
KSUX 161720Z 1618/1718 01007KT 3SM FZRA OVC005
     FM162100 01010KT 2SM FZRAPL OVC003
     FM170000 35008KT 2SM -FZRA OVC003
     FM170300 34010KT 3SM -SN OVC003
     FM170600 33011KT P6SM OVC010
     FM171100 32009KT P6SM BKN040=

USA.gov is the U.S. government's official web portal to all federal, state and local government web resources and services.